createdAt,value
2023-01-12T00:00:08.437Z,97.65
2023-01-12T00:01:08.370Z,97.13
2023-01-12T00:02:08.424Z,97.13
2023-01-12T00:03:08.416Z,97.28
2023-01-12T00:04:08.404Z,97.49
2023-01-12T00:05:08.322Z,97.59
2023-01-12T00:06:08.316Z,97.80
2023-01-12T00:07:08.330Z,97.90
2023-01-12T00:08:08.310Z,98.21
2023-01-12T00:09:08.262Z,98.42
2023-01-12T00:10:08.261Z,98.83
2023-01-12T00:11:08.254Z,98.90
2023-01-12T00:12:08.258Z,98.79
2023-01-12T00:13:08.327Z,98.38
2023-01-12T00:14:08.207Z,98.32
2023-01-12T00:15:08.214Z,98.21
2023-01-12T00:16:08.248Z,98.32
2023-01-12T00:17:08.162Z,98.32
2023-01-12T00:18:08.185Z,98.27
2023-01-12T00:19:08.132Z,98.42
2023-01-12T00:20:08.135Z,98.79
2023-01-12T00:21:08.099Z,99.00
2023-01-12T00:22:08.128Z,99.00
2023-01-12T00:23:08.063Z,98.79
2023-01-12T00:24:08.084Z,98.58
2023-01-12T00:25:08.043Z,98.38
2023-01-12T00:26:08.063Z,98.48
2023-01-12T00:27:08.026Z,98.38
2023-01-12T00:28:08.115Z,98.38
2023-01-12T00:29:08.019Z,98.69
2023-01-12T00:30:07.998Z,98.43
2023-01-12T00:31:08.019Z,98.17
2023-01-12T00:32:07.985Z,97.96
2023-01-12T00:33:07.951Z,97.86
2023-01-12T00:34:07.933Z,97.75
2023-01-12T00:35:07.940Z,97.86
2023-01-12T00:36:07.942Z,97.86
2023-01-12T00:37:07.891Z,97.96
2023-01-12T00:38:07.879Z,98.07
2023-01-12T00:39:07.968Z,98.27
2023-01-12T00:40:07.872Z,98.27
2023-01-12T00:41:07.843Z,98.38
2023-01-12T00:42:07.822Z,98.17
2023-01-12T00:43:07.802Z,97.86
2023-01-12T00:44:07.828Z,97.65
2023-01-12T00:45:07.808Z,97.44
2023-01-12T00:46:07.812Z,97.44
2023-01-12T00:47:07.765Z,97.44
2023-01-12T00:48:07.776Z,97.65
2023-01-12T00:49:07.737Z,97.65
2023-01-12T00:50:07.760Z,97.65
2023-01-12T00:51:07.731Z,97.34
2023-01-12T00:52:09.850Z,97.34
2023-01-12T00:53:07.696Z,97.24
2023-01-12T00:54:07.659Z,97.55
2023-01-12T00:55:07.651Z,97.86
2023-01-12T00:56:07.641Z,98.07
2023-01-12T00:57:07.631Z,98.38
2023-01-12T00:58:07.636Z,98.58
2023-01-12T00:59:07.593Z,98.38
2023-01-12T01:00:07.614Z,98.07
2023-01-12T01:01:07.671Z,97.75
2023-01-12T01:02:07.649Z,97.71
2023-01-12T01:03:07.566Z,97.96
2023-01-12T01:04:07.568Z,97.81
2023-01-12T01:05:07.519Z,97.19
2023-01-12T01:06:07.516Z,97.09
2023-01-12T01:07:07.479Z,97.09
2023-01-12T01:08:07.499Z,97.09
2023-01-12T01:09:07.453Z,97.29
2023-01-12T01:10:07.478Z,97.09
2023-01-12T01:11:07.427Z,97.39
2023-01-12T01:12:07.452Z,97.50
2023-01-12T01:13:07.409Z,97.50
2023-01-12T01:14:07.424Z,97.60
2023-01-12T01:15:07.370Z,97.71
2023-01-12T01:16:07.469Z,98.02
2023-01-12T01:17:07.347Z,98.02
2023-01-12T01:18:07.402Z,98.02
2023-01-12T01:19:07.324Z,98.02
2023-01-12T01:20:07.357Z,97.81
2023-01-12T01:21:07.302Z,97.60
2023-01-12T01:22:07.317Z,97.71
2023-01-12T01:23:07.300Z,97.81
2023-01-12T01:24:07.255Z,97.91
2023-01-12T01:25:07.244Z,97.60
2023-01-12T01:26:07.238Z,97.50
2023-01-12T01:27:07.220Z,97.39
2023-01-12T01:28:07.247Z,97.19
2023-01-12T01:29:07.185Z,97.19
2023-01-12T01:30:07.180Z,97.09
2023-01-12T01:31:07.266Z,97.09
2023-01-12T01:32:07.185Z,96.98
2023-01-12T01:33:07.133Z,96.88
2023-01-12T01:34:07.129Z,96.88
2023-01-12T01:35:07.138Z,96.82
2023-01-12T01:36:07.100Z,96.82
2023-01-12T01:37:07.082Z,96.82
2023-01-12T01:38:07.083Z,96.72
2023-01-12T01:39:07.050Z,96.61
2023-01-12T01:40:07.074Z,96.30
2023-01-12T01:41:07.030Z,96.30
2023-01-12T01:42:07.022Z,96.61
2023-01-12T01:43:07.001Z,96.72
2023-01-12T01:44:06.996Z,96.14
2023-01-12T01:45:06.997Z,95.37
2023-01-12T01:46:07.007Z,95.47
2023-01-12T01:47:06.973Z,95.68
2023-01-12T01:48:06.944Z,95.99
2023-01-12T01:49:06.917Z,96.24
2023-01-12T01:50:06.969Z,96.24
2023-01-12T01:51:06.894Z,96.45
2023-01-12T01:52:06.913Z,96.66
2023-01-12T01:53:06.872Z,96.86
2023-01-12T01:54:06.872Z,96.97
2023-01-12T01:55:06.874Z,96.70
2023-01-12T01:56:06.831Z,96.60
2023-01-12T01:57:06.836Z,96.91
2023-01-12T01:58:06.819Z,97.12
2023-01-12T01:59:06.789Z,97.22
2023-01-12T02:00:06.789Z,97.33
2023-01-12T02:01:06.847Z,97.22
2023-01-12T02:02:06.834Z,97.12
2023-01-12T02:03:06.827Z,97.12
2023-01-12T02:04:06.780Z,97.02
2023-01-12T02:05:06.713Z,97.22
2023-01-12T02:06:06.726Z,97.22
2023-01-12T02:07:06.685Z,97.43
2023-01-12T02:08:06.674Z,97.58
2023-01-12T02:09:06.674Z,97.68
2023-01-12T02:10:06.652Z,97.74
2023-01-12T02:11:06.630Z,97.22
2023-01-12T02:12:06.625Z,96.70
2023-01-12T02:13:06.598Z,96.50
2023-01-12T02:14:06.618Z,96.33
2023-01-12T02:15:06.602Z,96.23
2023-01-12T02:16:06.684Z,95.92
2023-01-12T02:17:06.543Z,95.81
2023-01-12T02:18:06.545Z,96.33
2023-01-12T02:19:06.528Z,96.69
2023-01-12T02:20:06.540Z,96.89
2023-01-12T02:21:06.494Z,97.20
2023-01-12T02:22:06.561Z,97.41
2023-01-12T02:23:06.473Z,97.20
2023-01-12T02:24:06.472Z,96.89
2023-01-12T02:25:06.466Z,96.58
2023-01-12T02:26:06.474Z,96.69
2023-01-12T02:27:06.450Z,96.79
2023-01-12T02:28:06.432Z,96.69
2023-01-12T02:29:06.414Z,96.89
2023-01-12T02:30:06.404Z,96.69
2023-01-12T02:31:06.380Z,96.52
2023-01-12T02:32:06.359Z,96.21
2023-01-12T02:33:06.341Z,96.11
2023-01-12T02:34:06.331Z,96.42
2023-01-12T02:35:06.337Z,96.62
2023-01-12T02:36:06.320Z,96.73
2023-01-12T02:37:06.289Z,96.62
2023-01-12T02:38:06.301Z,96.52
2023-01-12T02:39:06.301Z,96.42
2023-01-12T02:40:06.289Z,96.21
2023-01-12T02:41:06.242Z,96.21
2023-01-12T02:42:06.207Z,96.21
2023-01-12T02:43:06.249Z,96.00
2023-01-12T02:44:06.180Z,96.11
2023-01-12T02:45:06.213Z,96.25
2023-01-12T02:46:06.155Z,96.47
2023-01-12T02:47:06.152Z,96.52
2023-01-12T02:48:06.165Z,96.57
2023-01-12T02:49:06.137Z,96.62
2023-01-12T02:50:06.128Z,96.31
2023-01-12T02:51:06.099Z,95.90
2023-01-12T02:52:06.086Z,95.90
2023-01-12T02:53:06.082Z,95.59
2023-01-12T02:54:06.092Z,95.48
2023-01-12T02:55:06.056Z,95.17
2023-01-12T02:56:06.028Z,94.65
2023-01-12T02:57:06.028Z,94.45
2023-01-12T02:58:06.028Z,94.34
2023-01-12T02:59:06.036Z,94.45
2023-01-12T03:00:05.972Z,94.45
2023-01-12T03:01:06.091Z,94.45
2023-01-12T03:02:05.981Z,94.24
2023-01-12T03:03:06.067Z,94.24
2023-01-12T03:04:05.930Z,93.93
2023-01-12T03:05:05.930Z,93.93
2023-01-12T03:06:05.930Z,94.24
2023-01-12T03:07:05.908Z,94.13
2023-01-12T03:08:05.904Z,94.24
2023-01-12T03:09:05.871Z,94.34
2023-01-12T03:10:05.932Z,94.13
2023-01-12T03:11:05.852Z,94.55
2023-01-12T03:12:05.815Z,94.65
2023-01-12T03:13:05.809Z,94.55
2023-01-12T03:14:05.807Z,94.24
2023-01-12T03:15:05.779Z,93.93
2023-01-12T03:16:05.852Z,93.82
2023-01-12T03:17:05.759Z,93.93
2023-01-12T03:18:05.737Z,93.82
2023-01-12T03:19:05.761Z,94.34
2023-01-12T03:20:05.743Z,95.69
2023-01-12T03:21:05.699Z,95.79
2023-01-12T03:22:05.672Z,95.38
2023-01-12T03:23:05.715Z,94.03
2023-01-12T03:24:05.682Z,93.03
2023-01-12T03:25:05.649Z,93.14
2023-01-12T03:26:05.624Z,93.39
2023-01-12T03:27:05.651Z,93.91
2023-01-12T03:28:05.634Z,93.91
2023-01-12T03:29:05.606Z,94.01
2023-01-12T03:30:05.609Z,94.22
2023-01-12T03:31:05.614Z,94.43
2023-01-12T03:32:05.593Z,95.89
2023-01-12T03:33:05.542Z,95.78
2023-01-12T03:34:05.530Z,95.47
2023-01-12T03:35:05.559Z,95.67
2023-01-12T03:36:05.497Z,95.36
2023-01-12T03:37:05.479Z,95.36
2023-01-12T03:38:05.467Z,94.64
2023-01-12T03:39:05.493Z,94.22
2023-01-12T03:40:05.434Z,94.01
2023-01-12T03:41:05.431Z,94.22
2023-01-12T03:42:05.422Z,94.74
2023-01-12T03:43:05.409Z,94.64
2023-01-12T03:44:05.406Z,94.74
2023-01-12T03:45:05.392Z,94.12
2023-01-12T03:46:05.395Z,93.23
2023-01-12T03:47:05.379Z,92.91
2023-01-12T03:48:05.326Z,92.60
2023-01-12T03:49:05.388Z,93.58
2023-01-12T03:50:05.410Z,94.20
2023-01-12T03:51:05.378Z,94.72
2023-01-12T03:52:05.278Z,95.08
2023-01-12T03:53:05.283Z,95.39
2023-01-12T03:54:05.295Z,95.81
2023-01-12T03:55:05.314Z,96.33
2023-01-12T03:56:05.238Z,96.64
2023-01-12T03:57:05.221Z,96.85
2023-01-12T03:58:05.233Z,96.64
2023-01-12T03:59:05.252Z,96.64
2023-01-12T04:00:05.184Z,96.80
2023-01-12T04:01:05.353Z,96.49
2023-01-12T04:02:05.196Z,96.28
2023-01-12T04:03:05.179Z,96.70
2023-01-12T04:04:05.121Z,96.70
2023-01-12T04:05:05.114Z,95.66
2023-01-12T04:06:05.092Z,95.25
2023-01-12T04:07:05.126Z,94.51
2023-01-12T04:08:05.088Z,94.66
2023-01-12T04:09:05.070Z,94.76
2023-01-12T04:10:05.077Z,94.76
2023-01-12T04:11:05.033Z,94.56
2023-01-12T04:12:05.010Z,94.76
2023-01-12T04:13:05.006Z,95.39
2023-01-12T04:14:05.004Z,95.39
2023-01-12T04:15:05.047Z,95.29
2023-01-12T04:16:05.025Z,94.56
2023-01-12T04:17:04.975Z,94.45
2023-01-12T04:18:04.945Z,94.14
2023-01-12T04:19:04.991Z,93.83
2023-01-12T04:20:04.921Z,94.04
2023-01-12T04:21:04.906Z,94.04
2023-01-12T04:22:04.898Z,93.52
2023-01-12T04:23:04.895Z,93.83
2023-01-12T04:24:04.852Z,94.98
2023-01-12T04:25:04.960Z,95.08
2023-01-12T04:26:04.833Z,93.93
2023-01-12T04:27:04.830Z,93.14
2023-01-12T04:28:04.802Z,93.66
2023-01-12T04:29:04.825Z,93.81
2023-01-12T04:30:04.775Z,94.12
2023-01-12T04:31:04.772Z,94.64
2023-01-12T04:32:04.751Z,95.21
2023-01-12T04:33:04.742Z,96.04
2023-01-12T04:34:04.752Z,96.52
2023-01-12T04:35:04.740Z,96.15
2023-01-12T04:36:04.715Z,96.25
2023-01-12T04:37:04.699Z,96.36
2023-01-12T04:38:04.716Z,96.67
2023-01-12T04:39:04.661Z,96.88
2023-01-12T04:40:04.674Z,96.88
2023-01-12T04:41:04.640Z,96.88
2023-01-12T04:42:04.629Z,96.88
2023-01-12T04:43:07.179Z,96.98
2023-01-12T04:44:04.584Z,96.98
2023-01-12T04:45:04.620Z,96.98
2023-01-12T04:46:04.613Z,97.46
2023-01-12T04:47:04.556Z,97.46
2023-01-12T04:48:04.543Z,97.25
2023-01-12T04:49:04.638Z,96.73
2023-01-12T04:50:04.520Z,96.62
2023-01-12T04:51:04.510Z,96.11
2023-01-12T04:52:04.480Z,96.42
2023-01-12T04:53:04.527Z,96.21
2023-01-12T04:54:04.484Z,96.21
2023-01-12T04:55:04.457Z,96.21
2023-01-12T04:56:04.459Z,95.58
2023-01-12T04:57:04.422Z,95.48
2023-01-12T04:58:04.415Z,95.37
2023-01-12T04:59:04.430Z,95.27
2023-01-12T05:00:04.382Z,95.17
2023-01-12T05:01:04.433Z,96.00
2023-01-12T05:02:04.421Z,95.89
2023-01-12T05:03:04.379Z,95.48
2023-01-12T05:04:06.273Z,96.00
2023-01-12T05:05:04.324Z,96.69
2023-01-12T05:06:04.309Z,96.37
2023-01-12T05:07:04.284Z,95.75
2023-01-12T05:08:04.311Z,95.23
2023-01-12T05:09:04.283Z,95.75
2023-01-12T05:10:04.243Z,95.23
2023-01-12T05:11:04.269Z,93.81
2023-01-12T05:12:04.215Z,92.66
2023-01-12T05:13:04.209Z,92.81
2023-01-12T05:14:04.234Z,93.44
2023-01-12T05:15:04.188Z,94.17
2023-01-12T05:16:04.203Z,94.73
2023-01-12T05:17:04.162Z,95.25
2023-01-12T05:18:04.143Z,95.67
2023-01-12T05:19:04.134Z,96.09
2023-01-12T05:20:04.130Z,96.46
2023-01-12T05:21:04.128Z,96.56
2023-01-12T05:22:04.092Z,96.15
2023-01-12T05:23:04.084Z,95.42
2023-01-12T05:24:04.078Z,94.79
2023-01-12T05:25:04.051Z,94.27
2023-01-12T05:26:04.057Z,94.27
2023-01-12T05:27:04.066Z,94.31
2023-01-12T05:28:04.029Z,94.63
2023-01-12T05:29:04.028Z,95.36
2023-01-12T05:30:03.987Z,95.88
2023-01-12T05:31:04.033Z,96.40
2023-01-12T05:32:03.970Z,96.50
2023-01-12T05:33:03.955Z,96.92
2023-01-12T05:34:03.919Z,96.82
2023-01-12T05:35:03.948Z,96.71
2023-01-12T05:36:03.910Z,96.40
2023-01-12T05:37:03.908Z,96.09
2023-01-12T05:38:03.902Z,95.98
2023-01-12T05:39:03.908Z,96.09
2023-01-12T05:40:03.837Z,96.40
2023-01-12T05:41:03.852Z,96.61
2023-01-12T05:42:03.853Z,96.46
2023-01-12T05:43:03.819Z,96.15
2023-01-12T05:44:03.797Z,95.83
2023-01-12T05:45:03.801Z,95.21
2023-01-12T05:46:03.837Z,95.56
2023-01-12T05:47:03.771Z,95.94
2023-01-12T05:48:03.774Z,95.56
2023-01-12T05:49:03.754Z,94.73
2023-01-12T05:50:03.728Z,94.31
2023-01-12T05:51:03.709Z,94.31
2023-01-12T05:52:03.690Z,95.15
2023-01-12T05:53:03.703Z,94.94
2023-01-12T05:54:03.712Z,94.67
2023-01-12T05:55:03.663Z,95.29
2023-01-12T05:56:03.632Z,95.92
2023-01-12T05:57:03.640Z,96.44
2023-01-12T05:58:03.620Z,96.44
2023-01-12T05:59:03.639Z,96.03
2023-01-12T06:00:03.585Z,95.61
2023-01-12T06:01:03.593Z,95.72
2023-01-12T06:02:03.604Z,96.66
2023-01-12T06:03:03.639Z,96.44
2023-01-12T06:04:03.545Z,96.34
2023-01-12T06:05:03.541Z,96.23
2023-01-12T06:06:03.533Z,96.23
2023-01-12T06:07:03.503Z,96.50
2023-01-12T06:08:03.478Z,96.61
2023-01-12T06:09:03.509Z,96.30
2023-01-12T06:10:03.447Z,96.03
2023-01-12T06:11:03.480Z,95.92
2023-01-12T06:12:03.418Z,95.82
2023-01-12T06:13:03.423Z,96.03
2023-01-12T06:14:03.427Z,96.44
2023-01-12T06:15:03.396Z,96.44
2023-01-12T06:16:03.435Z,96.13
2023-01-12T06:17:03.401Z,96.03
2023-01-12T06:18:03.347Z,96.07
2023-01-12T06:19:03.345Z,96.07
2023-01-12T06:20:03.314Z,96.59
2023-01-12T06:21:03.354Z,96.80
2023-01-12T06:22:03.288Z,97.32
2023-01-12T06:23:03.297Z,97.64
2023-01-12T06:24:03.263Z,97.85
2023-01-12T06:25:03.267Z,98.16
2023-01-12T06:26:03.336Z,98.95
2023-01-12T06:27:03.235Z,98.95
2023-01-12T06:28:03.237Z,98.63
2023-01-12T06:29:03.220Z,97.85
2023-01-12T06:30:03.228Z,97.53
2023-01-12T06:31:03.212Z,97.53
2023-01-12T06:32:03.168Z,97.74
2023-01-12T06:33:03.157Z,98.16
2023-01-12T06:34:03.161Z,98.37
2023-01-12T06:35:14.146Z,98.58
2023-01-12T06:36:03.124Z,98.68
2023-01-12T06:37:03.153Z,98.95
2023-01-12T06:38:03.115Z,98.95
2023-01-12T06:39:03.124Z,98.95
2023-01-12T06:40:03.051Z,98.53
2023-01-12T06:41:03.055Z,97.91
2023-01-12T06:42:03.050Z,97.38
2023-01-12T06:43:03.034Z,97.38
2023-01-12T06:44:03.006Z,97.49
2023-01-12T06:45:03.001Z,97.70
2023-01-12T06:46:03.034Z,97.49
2023-01-12T06:47:02.983Z,97.17
2023-01-12T06:48:02.981Z,97.28
2023-01-12T06:49:02.940Z,97.07
2023-01-12T06:50:02.938Z,97.07
2023-01-12T06:51:02.933Z,97.28
2023-01-12T06:52:02.921Z,96.86
2023-01-12T06:53:02.883Z,96.76
2023-01-12T06:54:02.895Z,96.70
2023-01-12T06:55:02.849Z,97.17
2023-01-12T06:56:02.845Z,97.17
2023-01-12T06:57:02.832Z,96.80
2023-01-12T06:58:02.852Z,96.80
2023-01-12T06:59:02.836Z,96.59
2023-01-12T07:00:02.820Z,96.80
2023-01-12T07:01:02.811Z,97.01
2023-01-12T07:02:02.873Z,97.11
2023-01-12T07:03:02.782Z,97.43
2023-01-12T07:04:02.851Z,97.95
2023-01-12T07:05:02.718Z,98.26
2023-01-12T07:06:02.716Z,98.26
2023-01-12T07:07:02.717Z,97.74
2023-01-12T07:08:02.721Z,97.64
2023-01-12T07:09:02.670Z,97.43
2023-01-12T07:10:02.675Z,97.22
2023-01-12T07:11:02.648Z,97.22
2023-01-12T07:12:02.642Z,97.53
2023-01-12T07:13:02.660Z,97.80
2023-01-12T07:14:02.627Z,97.74
2023-01-12T07:15:02.603Z,97.59
2023-01-12T07:16:02.704Z,97.17
2023-01-12T07:17:02.580Z,96.91
2023-01-12T07:18:02.587Z,96.76
2023-01-12T07:19:02.548Z,97.38
2023-01-12T07:20:02.552Z,97.49
2023-01-12T07:21:02.513Z,99.99
2023-01-12T07:22:02.527Z,99.99
2023-01-12T07:23:02.482Z,99.99
2023-01-12T07:24:02.520Z,99.99
2023-01-12T07:25:02.494Z,99.99
2023-01-12T07:26:02.473Z,96.20
2023-01-12T07:27:02.450Z,92.24
2023-01-12T07:28:02.449Z,90.47
2023-01-12T07:29:02.445Z,91.78
2023-01-12T07:30:02.495Z,90.70
2023-01-12T07:31:02.550Z,88.84
2023-01-12T07:32:02.390Z,88.94
2023-01-12T07:33:02.503Z,89.52
2023-01-12T07:34:02.349Z,88.48
2023-01-12T07:35:02.384Z,87.76
2023-01-12T07:36:02.356Z,86.82
2023-01-12T07:37:02.291Z,86.82
2023-01-12T07:38:02.357Z,86.61
2023-01-12T07:39:02.306Z,86.61
2023-01-12T07:40:02.382Z,87.86
2023-01-12T07:41:02.337Z,87.96
2023-01-12T07:42:02.327Z,86.13
2023-01-12T07:43:02.216Z,86.44
2023-01-12T07:44:02.231Z,87.48
2023-01-12T07:45:02.268Z,86.96
2023-01-12T07:46:02.313Z,88.94
2023-01-12T07:47:02.162Z,87.90
2023-01-12T07:48:02.184Z,87.17
2023-01-12T07:49:02.172Z,87.52
2023-01-12T07:50:02.182Z,88.25
2023-01-12T07:51:02.137Z,88.56
2023-01-12T07:52:02.181Z,89.04
2023-01-12T07:53:02.131Z,88.04
2023-01-12T07:54:02.103Z,88.04
2023-01-12T07:55:02.106Z,88.10
2023-01-12T07:56:02.080Z,87.32
2023-01-12T07:57:02.069Z,87.73
2023-01-12T07:58:02.189Z,89.29
2023-01-12T07:59:02.022Z,89.25
2023-01-12T08:00:02.009Z,88.21
2023-01-12T08:01:02.070Z,88.62
2023-01-12T08:02:02.104Z,88.31
2023-01-12T08:03:01.999Z,87.59
2023-01-12T08:04:02.027Z,87.90
2023-01-12T08:05:01.927Z,86.76
2023-01-12T08:06:01.932Z,87.69
2023-01-12T08:07:01.931Z,87.90
2023-01-12T08:08:03.558Z,88.10
2023-01-12T08:09:01.926Z,88.07
2023-01-12T08:10:01.969Z,87.96
2023-01-12T08:11:01.857Z,87.13
2023-01-12T08:12:01.852Z,86.93
2023-01-12T08:13:01.860Z,87.51
2023-01-12T08:14:01.921Z,86.12
2023-01-12T08:15:01.899Z,84.36
2023-01-12T08:16:01.843Z,86.05
2023-01-12T08:17:01.854Z,87.19
2023-01-12T08:18:03.389Z,86.68
2023-01-12T08:19:01.767Z,87.40
2023-01-12T08:20:01.806Z,86.95
2023-01-12T08:21:01.797Z,85.12
2023-01-12T08:22:01.718Z,86.93
2023-01-12T08:23:01.749Z,87.96
2023-01-12T08:24:01.685Z,88.38
2023-01-12T08:25:01.712Z,87.24
2023-01-12T08:26:01.706Z,87.45
2023-01-12T08:27:01.682Z,88.42
2023-01-12T08:28:01.634Z,89.87
2023-01-12T08:29:01.672Z,89.87
2023-01-12T08:30:01.609Z,90.04
2023-01-12T08:31:01.733Z,89.52
2023-01-12T08:32:03.602Z,88.96
2023-01-12T08:33:01.575Z,88.96
2023-01-12T08:34:01.557Z,88.96
2023-01-12T08:35:02.059Z,88.75
2023-01-12T08:36:01.542Z,89.27
2023-01-12T08:37:01.511Z,88.48
2023-01-12T08:38:01.570Z,88.69
2023-01-12T08:39:01.527Z,88.84
2023-01-12T08:40:01.510Z,89.77
2023-01-12T08:41:01.454Z,90.81
2023-01-12T08:42:01.453Z,90.97
2023-01-12T08:43:01.464Z,89.42
2023-01-12T08:44:01.433Z,90.97
2023-01-12T08:45:01.399Z,91.00
2023-01-12T08:46:01.392Z,89.19
2023-01-12T08:47:01.375Z,86.55
2023-01-12T08:48:01.409Z,86.60
2023-01-12T08:49:01.351Z,87.01
2023-01-12T08:50:01.335Z,87.90
2023-01-12T08:51:01.313Z,86.66
2023-01-12T08:52:01.352Z,86.15
2023-01-12T08:53:01.293Z,85.97
2023-01-12T08:54:01.295Z,85.91
2023-01-12T08:55:01.270Z,87.16
2023-01-12T08:56:01.352Z,88.13
2023-01-12T08:57:01.241Z,88.75
2023-01-12T08:58:01.262Z,88.85
2023-01-12T08:59:01.205Z,89.06
2023-01-12T09:00:01.202Z,89.27
2023-01-12T09:01:01.314Z,89.11
2023-01-12T09:02:01.401Z,89.21
2023-01-12T09:03:01.194Z,89.67
2023-01-12T09:04:01.183Z,89.42
2023-01-12T09:05:01.131Z,90.14
2023-01-12T09:06:01.111Z,89.42
2023-01-12T09:07:01.175Z,89.42
2023-01-12T09:08:01.083Z,90.14
2023-01-12T09:09:01.090Z,90.66
2023-01-12T09:10:01.097Z,91.24
2023-01-12T09:11:01.057Z,90.25
2023-01-12T09:12:01.037Z,90.45
2023-01-12T09:13:01.019Z,91.14
2023-01-12T09:14:01.043Z,90.00
2023-01-12T09:15:01.004Z,89.89
2023-01-12T09:16:11.704Z,89.06
2023-01-12T09:17:01.060Z,89.69
2023-01-12T09:18:00.990Z,90.06
2023-01-12T09:19:00.961Z,88.30
2023-01-12T09:20:00.954Z,88.40
2023-01-12T09:21:00.913Z,88.40
2023-01-12T09:22:00.928Z,87.63
2023-01-12T09:23:00.919Z,87.63
2023-01-12T09:24:00.884Z,86.97
2023-01-12T09:25:00.861Z,87.80
2023-01-12T09:26:00.858Z,88.39
2023-01-12T09:27:00.864Z,85.17
2023-01-12T09:28:00.831Z,85.24
2023-01-12T09:29:00.817Z,85.86
2023-01-12T09:30:00.825Z,84.82
2023-01-12T09:31:00.825Z,84.41
2023-01-12T09:32:00.881Z,84.37
2023-01-12T09:33:00.759Z,84.58
2023-01-12T09:34:00.763Z,84.43
2023-01-12T09:35:00.743Z,83.50
2023-01-12T09:36:00.751Z,82.74
2023-01-12T09:37:00.747Z,83.15
2023-01-12T09:38:00.731Z,84.56
2023-01-12T09:39:00.700Z,83.28
2023-01-12T09:40:00.725Z,80.08
2023-01-12T09:41:02.309Z,80.70
2023-01-12T09:42:00.647Z,80.60
2023-01-12T09:43:00.645Z,80.70
2023-01-12T09:44:00.644Z,80.39
2023-01-12T09:45:00.645Z,80.49
2023-01-12T09:46:00.656Z,79.29
2023-01-12T09:47:00.563Z,79.70
2023-01-12T09:48:00.565Z,79.63
2023-01-12T09:49:00.548Z,81.70
2023-01-12T09:50:08.850Z,80.57
2023-01-12T09:51:00.522Z,81.02
2023-01-12T09:52:00.559Z,81.23
2023-01-12T09:53:00.534Z,81.54
2023-01-12T09:54:00.479Z,80.81
2023-01-12T09:55:00.618Z,80.91
2023-01-12T09:56:00.488Z,81.26
2023-01-12T09:57:00.441Z,81.88
2023-01-12T09:58:00.433Z,81.99
2023-01-12T09:59:00.411Z,81.99
2023-01-12T10:00:00.472Z,82.09
2023-01-12T10:01:00.433Z,82.40
2023-01-12T10:02:00.527Z,82.40
2023-01-12T10:03:00.531Z,81.57
2023-01-12T10:04:00.357Z,81.16
2023-01-12T10:05:00.322Z,81.68
2023-01-12T10:06:00.330Z,82.40
2023-01-12T10:07:00.313Z,82.50
2023-01-12T10:08:00.322Z,81.99
2023-01-12T10:09:00.277Z,82.19
2023-01-12T10:10:00.286Z,82.50
2023-01-12T10:11:00.237Z,81.99
2023-01-12T10:12:00.286Z,82.71
2023-01-12T10:13:00.221Z,82.71
2023-01-12T10:14:00.214Z,82.34
2023-01-12T10:15:00.301Z,83.47
2023-01-12T10:16:00.182Z,83.16
2023-01-12T10:17:00.219Z,83.16
2023-01-12T10:18:00.231Z,83.06
2023-01-12T10:19:00.171Z,82.23
2023-01-12T10:20:00.194Z,82.23
2023-01-12T10:21:00.133Z,82.86
2023-01-12T10:22:00.137Z,82.65
2023-01-12T10:23:00.096Z,82.03
2023-01-12T10:24:00.083Z,81.92
2023-01-12T10:25:00.082Z,82.60
2023-01-12T10:26:00.045Z,82.71
2023-01-12T10:27:00.110Z,83.33
2023-01-12T10:28:00.058Z,83.29
2023-01-12T10:29:00.027Z,82.98
2023-01-12T10:30:00.000Z,83.05
2023-01-12T10:31:00.032Z,80.36
2023-01-12T10:32:00.087Z,80.98
2023-01-12T10:32:59.966Z,80.63
2023-01-12T10:33:59.955Z,79.91
2023-01-12T10:34:59.927Z,80.43
2023-01-12T10:35:59.941Z,80.74
2023-01-12T10:36:59.946Z,81.35
2023-01-12T10:37:59.917Z,80.43
2023-01-12T10:38:59.870Z,78.88
2023-01-12T10:39:59.867Z,78.39
2023-01-12T10:40:59.849Z,79.22
2023-01-12T10:41:59.862Z,79.12
2023-01-12T10:43:02.339Z,80.26
2023-01-12T10:43:59.873Z,79.74
2023-01-12T10:44:59.812Z,79.84
2023-01-12T10:45:59.828Z,80.15
2023-01-12T10:46:59.776Z,79.53
2023-01-12T10:47:59.762Z,80.08
2023-01-12T10:48:59.762Z,79.57
2023-01-12T10:49:59.735Z,79.88
2023-01-12T10:50:59.729Z,80.19
2023-01-12T10:51:59.715Z,79.67
2023-01-12T10:52:59.698Z,79.05
2023-01-12T10:53:59.684Z,79.16
2023-01-12T10:54:59.658Z,80.08
2023-01-12T10:55:59.655Z,78.95
2023-01-12T10:56:59.661Z,79.05
2023-01-12T10:57:59.613Z,79.47
2023-01-12T10:58:59.636Z,80.57
2023-01-12T10:59:59.588Z,80.77
2023-01-12T11:00:59.714Z,80.98
2023-01-12T11:01:59.833Z,81.39
2023-01-12T11:02:59.668Z,80.84
2023-01-12T11:03:59.562Z,79.91
2023-01-12T11:04:59.534Z,79.39
2023-01-12T11:05:59.540Z,79.49
2023-01-12T11:06:59.515Z,80.01
2023-01-12T11:07:59.531Z,80.22
2023-01-12T11:08:59.496Z,79.91
2023-01-12T11:09:59.459Z,79.29
2023-01-12T11:10:59.446Z,80.18
2023-01-12T11:11:59.441Z,80.04
2023-01-12T11:12:59.449Z,78.59
2023-01-12T11:13:59.521Z,77.73
2023-01-12T11:14:59.397Z,78.14
2023-01-12T11:15:59.382Z,78.97
2023-01-12T11:16:59.461Z,78.14
2023-01-12T11:17:59.348Z,76.70
2023-01-12T11:18:59.366Z,76.43
2023-01-12T11:19:59.344Z,76.22
2023-01-12T11:20:59.349Z,77.87
2023-01-12T11:21:59.292Z,76.64
2023-01-12T11:22:59.366Z,75.70
2023-01-12T11:23:59.266Z,75.29
2023-01-12T11:24:59.294Z,75.22
2023-01-12T11:25:59.237Z,75.01
2023-01-12T11:26:59.238Z,75.36
2023-01-12T11:27:59.235Z,75.15
2023-01-12T11:28:59.208Z,75.88
2023-01-12T11:29:59.236Z,76.81
2023-01-12T11:30:59.244Z,77.01
2023-01-12T11:31:59.197Z,74.63
2023-01-12T11:32:59.161Z,75.36
2023-01-12T11:33:59.144Z,76.18
2023-01-12T11:34:59.136Z,76.09
2023-01-12T11:35:59.107Z,74.74
2023-01-12T11:36:59.141Z,75.46
2023-01-12T11:37:59.096Z,75.78
2023-01-12T11:38:59.087Z,75.46
2023-01-12T11:39:59.056Z,75.98
2023-01-12T11:40:59.066Z,76.50
2023-01-12T11:41:59.061Z,77.33
2023-01-12T11:42:59.024Z,77.01
2023-01-12T11:43:59.027Z,77.53
2023-01-12T11:44:58.994Z,78.77
2023-01-12T11:45:59.072Z,78.46
2023-01-12T11:46:58.967Z,76.46
2023-01-12T11:47:58.979Z,75.63
2023-01-12T11:48:58.944Z,75.84
2023-01-12T11:49:58.934Z,75.05
2023-01-12T11:50:58.920Z,75.15
2023-01-12T11:51:58.924Z,74.12
2023-01-12T11:52:58.922Z,75.22
2023-01-12T11:53:58.889Z,75.63
2023-01-12T11:54:58.890Z,75.12
2023-01-12T11:55:58.851Z,74.71
2023-01-12T11:56:58.839Z,73.88
2023-01-12T11:57:58.842Z,73.88
2023-01-12T11:58:58.837Z,73.77
2023-01-12T11:59:58.809Z,74.71
2023-01-12T12:00:58.843Z,74.19
2023-01-12T12:01:58.761Z,73.67
2023-01-12T12:02:58.800Z,73.98
2023-01-12T12:03:58.845Z,73.98
2023-01-12T12:04:58.747Z,73.77
2023-01-12T12:05:58.752Z,74.40
2023-01-12T12:06:58.708Z,73.54
2023-01-12T12:07:58.691Z,73.74
2023-01-12T12:08:59.168Z,73.74
2023-01-12T12:09:58.755Z,73.43
2023-01-12T12:10:58.698Z,74.26
2023-01-12T12:11:58.620Z,74.26
2023-01-12T12:12:58.629Z,74.26
2023-01-12T12:13:58.596Z,74.15
2023-01-12T12:14:58.710Z,73.50
2023-01-12T12:15:58.701Z,72.88
2023-01-12T12:16:58.570Z,73.60
2023-01-12T12:17:58.563Z,73.50
2023-01-12T12:18:58.574Z,73.88
2023-01-12T12:19:58.526Z,73.16
2023-01-12T12:20:58.547Z,73.98
2023-01-12T12:21:58.542Z,73.09
2023-01-12T12:22:58.496Z,72.64
2023-01-12T12:23:58.514Z,73.57
2023-01-12T12:24:58.463Z,72.74
2023-01-12T12:25:58.453Z,72.09
2023-01-12T12:26:58.478Z,72.40
2023-01-12T12:27:58.427Z,72.78
2023-01-12T12:28:58.432Z,71.51
2023-01-12T12:29:58.395Z,70.37
2023-01-12T12:30:58.460Z,69.86
2023-01-12T12:31:58.397Z,69.45
2023-01-12T12:32:58.386Z,70.37
2023-01-12T12:33:58.330Z,70.28
2023-01-12T12:34:58.344Z,71.51
2023-01-12T12:35:58.303Z,71.20
2023-01-12T12:36:58.333Z,70.28
2023-01-12T12:37:58.288Z,70.20
2023-01-12T12:38:58.270Z,70.51
2023-01-12T12:39:58.285Z,70.51
2023-01-12T12:40:58.270Z,70.20
2023-01-12T12:41:58.233Z,70.20
2023-01-12T12:42:58.222Z,71.55
2023-01-12T12:43:58.302Z,71.34
2023-01-12T12:44:58.196Z,70.31
2023-01-12T12:45:58.256Z,69.76
2023-01-12T12:46:58.155Z,70.37
2023-01-12T12:47:58.155Z,70.04
2023-01-12T12:48:58.139Z,69.42
2023-01-12T12:49:58.115Z,69.31
2023-01-12T12:50:58.108Z,69.42
2023-01-12T12:51:58.111Z,68.18